Main page
METAR-TAF:

METAR-TAF

Airports :

Eindhoven Airport

Eindhoven, Netherlands

latitude: 51-27N, longitude: 005-25E, elevation: 23 m

Current weather observation

The report was made 22 minutes ago, at 22:55 UTC
Wind 8 kt from the East, varying between Northeast and Southeast
Temperature 17°C
Humidity 34%
Pressure 1003 hPa
Visibility 10 km or more

METAR: EHEH 222255Z AUTO 09008KT 050V130 9999 NCD 17/01 Q1003 BLU

Time: 01:17 (23:17 UTC)

Forecast

The report was made 5 hours and 40 minutes ago, at 17:37 UTC
Forecast valid from 22 at 18 UTC to 23 at 24 UTC
Wind 10 kt from the East
Visibility 10 km or more
no clouds below 1500 m and no cumulonimbus
Becoming
from 23 at 07 UTC to 23 at 09 UTC
Wind 12 kt from the East with gusts up to 22 kt
Becoming
from 23 at 17 UTC to 23 at 19 UTC
Wind 6 kt from the East

TAF: EHEH 221737Z 2218/2324 08010KT CAVOK BECMG 2307/2309 09012G22KT BECMG 2317/2319 10006KT

Weather observations and forecasts of more than 4000 airports (METAR and TAF reports).

The available stations are represented by yellow and red dots on the map.

Hover mouse over dot to see the name of the station.

Then click to see weather observations and forecasts.

To change the map : click on the green buttons with a black cross to zoom in, on the green button with a dash to zoom out, or on the green arrows for adjacent maps.


METAR-TAF: